JeSS Newton — WDA2941 — position and weather

sailwx.info

Track history (hours):
 
Tides and Currents Weather Stations Pressure Air Temp Water Temp Dewpoint Dewpoint Depression Visibility Wind Speed Wind Dir Waves Ship Positions

JeSS Newton

Owner: G & H Towing Company, Galveston, TX. More information available from US FCC via Universal Licensing System and Coast Guard Vessel Documentation Center.

Last reported at 2017-Nov-19 17:34 UTC. Time now 2017-Nov-21 06:31 UTC.
Position N 29°45' W 095°10'.

Length 30 m; draft 5 m.

Type: Tug. MMSI: 366792940.

Date/timePositionNaut miles runAvg speedWind from/ knotsBaromVisibWave heightAir tempDewpointWater temp
2017-Nov-19 17:34N 29°45' W 095°10'1 0.3
2017-Nov-19 14:42N 29°44' W 095°09'0 0.9
2017-Nov-19 14:30N 29°44' W 095°09'4 1.3
2017-Nov-19 11:38N 29°46' W 095°05'0 0.0
2017-Nov-19 08:47N 29°46' W 095°05'2 7.4
2017-Nov-19 08:30N 29°44' W 095°04'3 2.5
2017-Nov-19 07:24N 29°43' W 095°01'1 2.5
2017-Nov-19 07:00N 29°44' W 095°01'6 0.3
2017-Nov-18 06:49N 29°44' W 095°09'2 1.0
2017-Nov-18 05:07N 29°44' W 095°07'1 0.1
2017-Nov-17 16:34N 29°44' W 095°07'0 0.7
2017-Nov-17 16:28N 29°44' W 095°07'1 0.2
2017-Nov-17 11:46N 29°45' W 095°06'2 0.4
2017-Nov-17 07:40N 29°44' W 095°08'2 0.9
2017-Nov-17 05:18N 29°45' W 095°10'0 0.2
2017-Nov-17 05:00N 29°45' W 095°10'1 1.5
2017-Nov-17 04:28N 29°45' W 095°10'1 1.1
2017-Nov-17 03:58N 29°45' W 095°10'2 3.5
2017-Nov-17 03:30N 29°44' W 095°08'0 0.0
2017-Nov-17 00:12N 29°44' W 095°08'1 0.9
2017-Nov-16 22:59N 29°44' W 095°10'1 0.3
2017-Nov-16 19:57N 29°44' W 095°09'2 4.2
2017-Nov-16 19:29N 29°45' W 095°11'1 2.5
2017-Nov-16 18:59N 29°44' W 095°09'3 1.9
2017-Nov-16 17:32N 29°45' W 095°06'1 0.6
2017-Nov-16 16:31N 29°44' W 095°07'1 7.9
2017-Nov-16 16:20N 29°44' W 095°08'3 7.5
2017-Nov-16 15:57N 29°45' W 095°12'1 1.2
2017-Nov-16 15:31N 29°44' W 095°12'0 0.0
2017-Nov-16 14:10N 29°44' W 095°12'1 5.8
2017-Nov-16 13:57N 29°43' W 095°13'1 1.9
2017-Nov-16 13:26N 29°43' W 095°14'0 0.0
2017-Nov-16 12:59N 29°43' W 095°14'2 0.8
2017-Nov-16 10:28N 29°44' W 095°16'1 1.1
2017-Nov-16 09:58N 29°44' W 095°17'1 1.1
2017-Nov-16 09:26N 29°44' W 095°17'0 1.1
2017-Nov-16 09:00N 29°43' W 095°16'0 0.0
2017-Nov-16 06:08N 29°44' W 095°16'0 0.0
2017-Nov-16 05:59N 29°44' W 095°16'0 0.0
2017-Nov-16 05:30N 29°44' W 095°16'1 0.7
2017-Nov-16 03:57N 29°44' W 095°15'2 0.5
2017-Nov-16 00:36N 29°44' W 095°17'0 2.5
2017-Nov-16 00:30N 29°44' W 095°17'1 1.7
2017-Nov-16 00:00N 29°43' W 095°16'2 3.3
2017-Nov-15 23:29N 29°43' W 095°14'2 1.1
2017-Nov-15 21:49N 29°44' W 095°12'1 0.5
2017-Nov-15 20:45N 29°45' W 095°12'1 0.3
2017-Nov-15 16:18N 29°45' W 095°10'2 4.6
2017-Nov-15 15:56N 29°44' W 095°12'0 0.1
2017-Nov-15 15:26N 29°44' W 095°12'0 0.1
2017-Nov-15 15:00N 29°44' W 095°12'0 0.1
2017-Nov-15 14:19N 29°44' W 095°12'3 7.2
2017-Nov-15 13:57N 29°44' W 095°09'2 0.2
2017-Nov-15 03:35N 29°44' W 095°07'0 0.4
2017-Nov-15 03:17N 29°45' W 095°07'0 0.0
2017-Nov-15 02:46N 29°45' W 095°07'2 0.4
2017-Nov-14 22:39N 29°44' W 095°09'0 0.4
2017-Nov-14 22:30N 29°44' W 095°09'0 0.0
2017-Nov-14 21:59N 29°44' W 095°09'0 0.0
2017-Nov-14 21:30N 29°44' W 095°09'0 0.0
2017-Nov-14 21:00N 29°44' W 095°09'0 0.0
2017-Nov-14 20:30N 29°44' W 095°09'2 1.9
2017-Nov-14 19:14N 29°45' W 095°11'1 0.4
2017-Nov-14 17:00N 29°44' W 095°12'0 0.0
2017-Nov-14 16:29N 29°44' W 095°12'1 1.7
2017-Nov-14 15:47N 29°44' W 095°13'1 3.0
2017-Nov-14 15:30N 29°43' W 095°14'0 0.0
2017-Nov-14 14:39N 29°43' W 095°14'1 1.6
2017-Nov-14 14:15N 29°44' W 095°14'1 2.5
2017-Nov-14 13:58N 29°43' W 095°13'3 4.7
2017-Nov-14 13:25N 29°45' W 095°10'3 5.2
2017-Nov-14 12:49N 29°44' W 095°07'0 0.0
2017-Nov-14 05:19N 29°44' W 095°07'0 0.0
2017-Nov-14 04:43N 29°44' W 095°07'0 0.0
2017-Nov-14 04:30N 29°44' W 095°07'2 4.2
2017-Nov-14 04:00N 29°44' W 095°09'1 2.0
2017-Nov-14 03:28N 29°45' W 095°10'0 0.0
2017-Nov-14 02:57N 29°45' W 095°10'0 0.1
2017-Nov-13 23:49N 29°45' W 095°10'2 7.1
2017-Nov-13 23:30N 29°44' W 095°08'1 0.7
2017-Nov-13 22:39N 29°44' W 095°09'1 0.0
2017-Nov-12 22:30N 29°44' W 095°07'0 0.1
2017-Nov-12 16:38N 29°44' W 095°08'0 0.2
2017-Nov-12 16:10N 29°44' W 095°08'0 0.5
2017-Nov-12 15:52N 29°44' W 095°08'1 0.5
2017-Nov-12 13:41N 29°44' W 095°07'1 8.1
2017-Nov-12 13:30N 29°44' W 095°08'1 1.3
2017-Nov-12 12:53N 29°44' W 095°09'0 0.0
2017-Nov-12 12:28N 29°44' W 095°09'1 0.3
2017-Nov-12 07:11N 29°45' W 095°10'1 1.4
2017-Nov-12 06:27N 29°45' W 095°12'0 0.1
2017-Nov-12 06:00N 29°45' W 095°12'1 1.1
2017-Nov-12 05:30N 29°45' W 095°11'1 2.3
2017-Nov-12 05:00N 29°44' W 095°12'0 0.0
2017-Nov-12 04:30N 29°44' W 095°12'0 0.0
2017-Nov-12 03:57N 29°44' W 095°12'0 0.0
2017-Nov-12 03:29N 29°44' W 095°12'1 1.2
2017-Nov-12 03:00N 29°44' W 095°13'1 1.2
2017-Nov-12 02:20N 29°44' W 095°13'0 0.0
2017-Nov-12 01:58N 29°44' W 095°13'1 2.4
2017-Nov-12 01:29N 29°44' W 095°12'0 0.0
2017-Nov-12 00:56N 29°44' W 095°12'1 2.4
2017-Nov-12 00:28N 29°43' W 095°13'1 2.9
2017-Nov-12 00:00N 29°43' W 095°15'1 1.8
2017-Nov-11 23:30N 29°44' W 095°14'3 1.3
2017-Nov-11 21:02N 29°45' W 095°10'0 8.0
2017-Nov-11 21:00N 29°45' W 095°10'0 0.4
2017-Nov-11 20:25N 29°45' W 095°10'1 2.6
2017-Nov-11 20:00N 29°44' W 095°09'2 0.7
2017-Nov-11 17:20N 29°44' W 095°07'3 7.7
2017-Nov-11 16:59N 29°45' W 095°10'3 2.6
2017-Nov-11 15:47N 29°44' W 095°13'1 2.7
2017-Nov-11 15:24N 29°43' W 095°14'1 2.2
2017-Nov-11 15:00N 29°44' W 095°13'2 4.6
2017-Nov-11 14:28N 29°45' W 095°11'3 6.1
2017-Nov-11 14:00N 29°44' W 095°08'0 0.1
2017-Nov-11 09:11N 29°44' W 095°07'2 8.1
2017-Nov-11 08:59N 29°44' W 095°09'2 1.9
2017-Nov-11 08:06N 29°45' W 095°11'1 1.2
2017-Nov-11 07:39N 29°45' W 095°11'0 1.4
2017-Nov-11 07:21N 29°45' W 095°10'1 3.1
2017-Nov-11 07:00N 29°44' W 095°09'1 2.2
2017-Nov-11 06:30N 29°45' W 095°10'0 0.0
2017-Nov-11 05:51N 29°45' W 095°10'0 0.0
2017-Nov-11 05:27N 29°45' W 095°10'1 2.9
2017-Nov-11 05:00N 29°45' W 095°11'0 0.0
2017-Nov-11 04:30N 29°45' W 095°11'0 0.1
2017-Nov-11 04:00N 29°45' W 095°11'1 2.1
2017-Nov-11 03:29N 29°45' W 095°10'0 0.2
2017-Nov-11 02:50N 29°45' W 095°10'0 0.0
2017-Nov-11 02:06N 29°45' W 095°10'0 2.0
2017-Nov-11 02:00N 29°45' W 095°10'3 0.7
2017-Nov-10 21:43N 29°44' W 095°07'1 1.5
2017-Nov-10 20:47N 29°44' W 095°08'1 0.4
2017-Nov-10 18:13N 29°44' W 095°09'0 0.2
2017-Nov-10 16:26N 29°44' W 095°09'2 2.7
2017-Nov-10 15:43N 29°44' W 095°07'0 0.0
2017-Nov-10 08:47N 29°44' W 095°07'0 0.4
2017-Nov-10 07:53N 29°45' W 095°07'0 0.2
2017-Nov-10 06:21N 29°44' W 095°07'0 0.0
2017-Nov-10 06:00N 29°44' W 095°07'0 0.3
2017-Nov-10 05:29N 29°44' W 095°07'0 0.1
2017-Nov-10 01:30N 29°44' W 095°07'1 2.7
2017-Nov-10 01:00N 29°44' W 095°09'0 0.0
2017-Nov-10 00:31N 29°44' W 095°09'0 0.0
2017-Nov-09 23:59N 29°44' W 095°09'  
Track history (hours):
 
Tides and Currents Weather Stations Pressure Air Temp Water Temp Dewpoint Dewpoint Depression Visibility Wind Speed Wind Dir Waves Ship Positions

JeSS Newton

Owner: G & H Towing Company, Galveston, TX. More information available from US FCC via Universal Licensing System and Coast Guard Vessel Documentation Center.

Last reported at 2017-Nov-19 17:34 UTC. Time now 2017-Nov-21 06:31 UTC.
Position N 29°45' W 095°10'.

Length 30 m; draft 5 m.

Type: Tug. MMSI: 366792940.

Date/timePositionNaut miles runAvg speedWind from/ knotsBaromVisibWave heightAir tempDewpointWater temp
2017-Nov-19 17:34N 29°45' W 095°10'1 0.3
2017-Nov-19 14:42N 29°44' W 095°09'0 0.9
2017-Nov-19 14:30N 29°44' W 095°09'4 1.3
2017-Nov-19 11:38N 29°46' W 095°05'0 0.0
2017-Nov-19 08:47N 29°46' W 095°05'2 7.4
2017-Nov-19 08:30N 29°44' W 095°04'3 2.5
2017-Nov-19 07:24N 29°43' W 095°01'1 2.5
2017-Nov-19 07:00N 29°44' W 095°01'6 0.3
2017-Nov-18 06:49N 29°44' W 095°09'2 1.0
2017-Nov-18 05:07N 29°44' W 095°07'1 0.1
2017-Nov-17 16:34N 29°44' W 095°07'0 0.7
2017-Nov-17 16:28N 29°44' W 095°07'1 0.2
2017-Nov-17 11:46N 29°45' W 095°06'2 0.4
2017-Nov-17 07:40N 29°44' W 095°08'2 0.9
2017-Nov-17 05:18N 29°45' W 095°10'0 0.2
2017-Nov-17 05:00N 29°45' W 095°10'1 1.5
2017-Nov-17 04:28N 29°45' W 095°10'1 1.1
2017-Nov-17 03:58N 29°45' W 095°10'2 3.5
2017-Nov-17 03:30N 29°44' W 095°08'0 0.0
2017-Nov-17 00:12N 29°44' W 095°08'1 0.9
2017-Nov-16 22:59N 29°44' W 095°10'1 0.3
2017-Nov-16 19:57N 29°44' W 095°09'2 4.2
2017-Nov-16 19:29N 29°45' W 095°11'1 2.5
2017-Nov-16 18:59N 29°44' W 095°09'3 1.9
2017-Nov-16 17:32N 29°45' W 095°06'1 0.6
2017-Nov-16 16:31N 29°44' W 095°07'1 7.9
2017-Nov-16 16:20N 29°44' W 095°08'3 7.5
2017-Nov-16 15:57N 29°45' W 095°12'1 1.2
2017-Nov-16 15:31N 29°44' W 095°12'0 0.0
2017-Nov-16 14:10N 29°44' W 095°12'1 5.8
2017-Nov-16 13:57N 29°43' W 095°13'1 1.9
2017-Nov-16 13:26N 29°43' W 095°14'0 0.0
2017-Nov-16 12:59N 29°43' W 095°14'2 0.8
2017-Nov-16 10:28N 29°44' W 095°16'1 1.1
2017-Nov-16 09:58N 29°44' W 095°17'1 1.1
2017-Nov-16 09:26N 29°44' W 095°17'0 1.1
2017-Nov-16 09:00N 29°43' W 095°16'0 0.0
2017-Nov-16 06:08N 29°44' W 095°16'0 0.0
2017-Nov-16 05:59N 29°44' W 095°16'0 0.0
2017-Nov-16 05:30N 29°44' W 095°16'1 0.7
2017-Nov-16 03:57N 29°44' W 095°15'2 0.5
2017-Nov-16 00:36N 29°44' W 095°17'0 2.5
2017-Nov-16 00:30N 29°44' W 095°17'1 1.7
2017-Nov-16 00:00N 29°43' W 095°16'2 3.3
2017-Nov-15 23:29N 29°43' W 095°14'2 1.1
2017-Nov-15 21:49N 29°44' W 095°12'1 0.5
2017-Nov-15 20:45N 29°45' W 095°12'1 0.3
2017-Nov-15 16:18N 29°45' W 095°10'2 4.6
2017-Nov-15 15:56N 29°44' W 095°12'0 0.1
2017-Nov-15 15:26N 29°44' W 095°12'0 0.1
2017-Nov-15 15:00N 29°44' W 095°12'0 0.1
2017-Nov-15 14:19N 29°44' W 095°12'3 7.2
2017-Nov-15 13:57N 29°44' W 095°09'2 0.2
2017-Nov-15 03:35N 29°44' W 095°07'0 0.4
2017-Nov-15 03:17N 29°45' W 095°07'0 0.0
2017-Nov-15 02:46N 29°45' W 095°07'2 0.4
2017-Nov-14 22:39N 29°44' W 095°09'0 0.4
2017-Nov-14 22:30N 29°44' W 095°09'0 0.0
2017-Nov-14 21:59N 29°44' W 095°09'0 0.0
2017-Nov-14 21:30N 29°44' W 095°09'0 0.0
2017-Nov-14 21:00N 29°44' W 095°09'0 0.0
2017-Nov-14 20:30N 29°44' W 095°09'2 1.9
2017-Nov-14 19:14N 29°45' W 095°11'1 0.4
2017-Nov-14 17:00N 29°44' W 095°12'0 0.0
2017-Nov-14 16:29N 29°44' W 095°12'1 1.7
2017-Nov-14 15:47N 29°44' W 095°13'1 3.0
2017-Nov-14 15:30N 29°43' W 095°14'0 0.0
2017-Nov-14 14:39N 29°43' W 095°14'1 1.6
2017-Nov-14 14:15N 29°44' W 095°14'1 2.5
2017-Nov-14 13:58N 29°43' W 095°13'3 4.7
2017-Nov-14 13:25N 29°45' W 095°10'3 5.2
2017-Nov-14 12:49N 29°44' W 095°07'0 0.0
2017-Nov-14 05:19N 29°44' W 095°07'0 0.0
2017-Nov-14 04:43N 29°44' W 095°07'0 0.0
2017-Nov-14 04:30N 29°44' W 095°07'2 4.2
2017-Nov-14 04:00N 29°44' W 095°09'1 2.0
2017-Nov-14 03:28N 29°45' W 095°10'0 0.0
2017-Nov-14 02:57N 29°45' W 095°10'0 0.1
2017-Nov-13 23:49N 29°45' W 095°10'2 7.1
2017-Nov-13 23:30N 29°44' W 095°08'1 0.7
2017-Nov-13 22:39N 29°44' W 095°09'1 0.0
2017-Nov-12 22:30N 29°44' W 095°07'0 0.1
2017-Nov-12 16:38N 29°44' W 095°08'0 0.2
2017-Nov-12 16:10N 29°44' W 095°08'0 0.5
2017-Nov-12 15:52N 29°44' W 095°08'1 0.5
2017-Nov-12 13:41N 29°44' W 095°07'1 8.1
2017-Nov-12 13:30N 29°44' W 095°08'1 1.3
2017-Nov-12 12:53N 29°44' W 095°09'0 0.0
2017-Nov-12 12:28N 29°44' W 095°09'1 0.3
2017-Nov-12 07:11N 29°45' W 095°10'1 1.4
2017-Nov-12 06:27N 29°45' W 095°12'0 0.1
2017-Nov-12 06:00N 29°45' W 095°12'1 1.1
2017-Nov-12 05:30N 29°45' W 095°11'1 2.3
2017-Nov-12 05:00N 29°44' W 095°12'0 0.0
2017-Nov-12 04:30N 29°44' W 095°12'0 0.0
2017-Nov-12 03:57N 29°44' W 095°12'0 0.0
2017-Nov-12 03:29N 29°44' W 095°12'1 1.2
2017-Nov-12 03:00N 29°44' W 095°13'1 1.2
2017-Nov-12 02:20N 29°44' W 095°13'0 0.0
2017-Nov-12 01:58N 29°44' W 095°13'1 2.4
2017-Nov-12 01:29N 29°44' W 095°12'0 0.0
2017-Nov-12 00:56N 29°44' W 095°12'1 2.4
2017-Nov-12 00:28N 29°43' W 095°13'1 2.9
2017-Nov-12 00:00N 29°43' W 095°15'1 1.8
2017-Nov-11 23:30N 29°44' W 095°14'3 1.3
2017-Nov-11 21:02N 29°45' W 095°10'0 8.0
2017-Nov-11 21:00N 29°45' W 095°10'0 0.4
2017-Nov-11 20:25N 29°45' W 095°10'1 2.6
2017-Nov-11 20:00N 29°44' W 095°09'2 0.7
2017-Nov-11 17:20N 29°44' W 095°07'3 7.7
2017-Nov-11 16:59N 29°45' W 095°10'3 2.6
2017-Nov-11 15:47N 29°44' W 095°13'1 2.7
2017-Nov-11 15:24N 29°43' W 095°14'1 2.2
2017-Nov-11 15:00N 29°44' W 095°13'2 4.6
2017-Nov-11 14:28N 29°45' W 095°11'3 6.1
2017-Nov-11 14:00N 29°44' W 095°08'0 0.1
2017-Nov-11 09:11N 29°44' W 095°07'2 8.1
2017-Nov-11 08:59N 29°44' W 095°09'2 1.9
2017-Nov-11 08:06N 29°45' W 095°11'1 1.2
2017-Nov-11 07:39N 29°45' W 095°11'0 1.4
2017-Nov-11 07:21N 29°45' W 095°10'1 3.1
2017-Nov-11 07:00N 29°44' W 095°09'1 2.2
2017-Nov-11 06:30N 29°45' W 095°10'0 0.0
2017-Nov-11 05:51N 29°45' W 095°10'0 0.0
2017-Nov-11 05:27N 29°45' W 095°10'1 2.9
2017-Nov-11 05:00N 29°45' W 095°11'0 0.0
2017-Nov-11 04:30N 29°45' W 095°11'0 0.1
2017-Nov-11 04:00N 29°45' W 095°11'1 2.1
2017-Nov-11 03:29N 29°45' W 095°10'0 0.2
2017-Nov-11 02:50N 29°45' W 095°10'0 0.0
2017-Nov-11 02:06N 29°45' W 095°10'0 2.0
2017-Nov-11 02:00N 29°45' W 095°10'3 0.7
2017-Nov-10 21:43N 29°44' W 095°07'1 1.5
2017-Nov-10 20:47N 29°44' W 095°08'1 0.4
2017-Nov-10 18:13N 29°44' W 095°09'0 0.2
2017-Nov-10 16:26N 29°44' W 095°09'2 2.7
2017-Nov-10 15:43N 29°44' W 095°07'0 0.0
2017-Nov-10 08:47N 29°44' W 095°07'0 0.4
2017-Nov-10 07:53N 29°45' W 095°07'0 0.2
2017-Nov-10 06:21N 29°44' W 095°07'0 0.0
2017-Nov-10 06:00N 29°44' W 095°07'0 0.3
2017-Nov-10 05:29N 29°44' W 095°07'0 0.1
2017-Nov-10 01:30N 29°44' W 095°07'1 2.7
2017-Nov-10 01:00N 29°44' W 095°09'0 0.0
2017-Nov-10 00:31N 29°44' W 095°09'0 0.0
2017-Nov-09 23:59N 29°44' W 095°09'  

Dump ship's entire track history